sensor_id;sensor_type;location;lat;lon;timestamp;pressure;altitude;pressure_sealevel;temperature;humidity
18755;BME280;35061;47.664;9.166;2023-08-01T00:02:24;100762.12;;;20.24;66.43
18755;BME280;35061;47.664;9.166;2023-08-01T00:04:52;100775.09;;;20.22;66.96
18755;BME280;35061;47.664;9.166;2023-08-01T00:07:20;100764.01;;;20.21;67.82
18755;BME280;35061;47.664;9.166;2023-08-01T00:09:48;100771.96;;;20.20;68.08
18755;BME280;35061;47.664;9.166;2023-08-01T00:12:16;100759.89;;;20.16;68.72
18755;BME280;35061;47.664;9.166;2023-08-01T00:14:44;100740.66;;;20.13;69.10
18755;BME280;35061;47.664;9.166;2023-08-01T00:17:12;100728.86;;;20.11;69.12
18755;BME280;35061;47.664;9.166;2023-08-01T00:19:40;100736.02;;;20.10;69.69
18755;BME280;35061;47.664;9.166;2023-08-01T00:22:09;100737.91;;;20.07;70.39
18755;BME280;35061;47.664;9.166;2023-08-01T00:24:37;100723.92;;;20.06;71.15
18755;BME280;35061;47.664;9.166;2023-08-01T00:27:05;100712.67;;;20.02;71.40
18755;BME280;35061;47.664;9.166;2023-08-01T00:29:36;100706.62;;;20.00;71.19
18755;BME280;35061;47.664;9.166;2023-08-01T00:32:04;100717.28;;;19.98;71.14
18755;BME280;35061;47.664;9.166;2023-08-01T00:34:32;100698.84;;;19.95;71.58
18755;BME280;35061;47.664;9.166;2023-08-01T00:37:00;100694.13;;;19.92;71.89
18755;BME280;35061;47.664;9.166;2023-08-01T00:39:28;100680.37;;;19.92;71.89
18755;BME280;35061;47.664;9.166;2023-08-01T00:41:57;100671.24;;;19.88;71.88
18755;BME280;35061;47.664;9.166;2023-08-01T00:44:24;100672.78;;;19.89;71.89
18755;BME280;35061;47.664;9.166;2023-08-01T00:46:52;100682.85;;;19.88;71.74
18755;BME280;35061;47.664;9.166;2023-08-01T00:49:20;100678.37;;;19.87;72.03
18755;BME280;35061;47.664;9.166;2023-08-01T00:51:49;100669.45;;;19.85;72.18
18755;BME280;35061;47.664;9.166;2023-08-01T00:54:16;100664.41;;;19.86;72.21
18755;BME280;35061;47.664;9.166;2023-08-01T00:56:44;100661.30;;;19.84;72.22
18755;BME280;35061;47.664;9.166;2023-08-01T00:59:12;100656.04;;;19.82;72.13
18755;BME280;35061;47.664;9.166;2023-08-01T01:01:41;100653.13;;;19.82;72.20
18755;BME280;35061;47.664;9.166;2023-08-01T01:04:09;100651.78;;;19.83;72.28
18755;BME280;35061;47.664;9.166;2023-08-01T01:06:52;100643.05;;;19.83;72.33
18755;BME280;35061;47.664;9.166;2023-08-01T01:09:28;100644.43;;;19.82;72.55
18755;BME280;35061;47.664;9.166;2023-08-01T01:11:56;100640.73;;;19.82;72.63
18755;BME280;35061;47.664;9.166;2023-08-01T01:14:26;100628.89;;;19.79;72.69
18755;BME280;35061;47.664;9.166;2023-08-01T01:16:54;100618.62;;;19.78;72.69
18755;BME280;35061;47.664;9.166;2023-08-01T01:19:22;100610.68;;;19.79;72.61
18755;BME280;35061;47.664;9.166;2023-08-01T01:21:51;100610.68;;;19.79;72.50
18755;BME280;35061;47.664;9.166;2023-08-01T01:24:21;100614.38;;;19.79;72.54
18755;BME280;35061;47.664;9.166;2023-08-01T01:26:49;100607.80;;;19.79;72.44
18755;BME280;35061;47.664;9.166;2023-08-01T01:29:18;100596.16;;;19.79;72.41
18755;BME280;35061;47.664;9.166;2023-08-01T01:31:47;100590.38;;;19.79;72.39
18755;BME280;35061;47.664;9.166;2023-08-01T01:34:16;100593.80;;;19.77;72.53
18755;BME280;35061;47.664;9.166;2023-08-01T01:36:44;100591.71;;;19.78;72.64
18755;BME280;35061;47.664;9.166;2023-08-01T01:39:12;100596.16;;;19.79;72.95
18755;BME280;35061;47.664;9.166;2023-08-01T01:41:39;100586.13;;;19.80;73.21
18755;BME280;35061;47.664;9.166;2023-08-01T01:44:08;100581.64;;;19.79;73.63
18755;BME280;35061;47.664;9.166;2023-08-01T01:46:35;100572.72;;;19.77;74.08
18755;BME280;35061;47.664;9.166;2023-08-01T01:49:05;100578.54;;;19.77;74.54
18755;BME280;35061;47.664;9.166;2023-08-01T01:51:33;100575.82;;;19.79;74.72
18755;BME280;35061;47.664;9.166;2023-08-01T01:54:01;100589.91;;;19.75;75.30
18755;BME280;35061;47.664;9.166;2023-08-01T01:56:29;100597.86;;;19.74;75.28
18755;BME280;35061;47.664;9.166;2023-08-01T01:58:57;100580.43;;;19.74;75.16
18755;BME280;35061;47.664;9.166;2023-08-01T02:01:25;100583.34;;;19.74;75.22
18755;BME280;35061;47.664;9.166;2023-08-01T02:03:53;100580.99;;;19.73;75.24
18755;BME280;35061;47.664;9.166;2023-08-01T02:06:21;100583.34;;;19.74;74.89
18755;BME280;35061;47.664;9.166;2023-08-01T02:08:49;100578.30;;;19.75;74.53
18755;BME280;35061;47.664;9.166;2023-08-01T02:11:17;100575.17;;;19.73;74.33
18755;BME280;35061;47.664;9.166;2023-08-01T02:13:45;100578.86;;;19.73;73.92
18755;BME280;35061;47.664;9.166;2023-08-01T02:16:13;100576.18;;;19.75;73.96
18755;BME280;35061;47.664;9.166;2023-08-01T02:18:40;100573.83;;;19.74;73.99
18755;BME280;35061;47.664;9.166;2023-08-01T02:21:08;100572.48;;;19.75;74.12
18755;BME280;35061;47.664;9.166;2023-08-01T02:23:36;100569.58;;;19.75;74.34
18755;BME280;35061;47.664;9.166;2023-08-01T02:26:05;100568.83;;;19.74;74.31
18755;BME280;35061;47.664;9.166;2023-08-01T02:28:35;100583.67;;;19.71;74.05
18755;BME280;35061;47.664;9.166;2023-08-01T02:31:03;100592.59;;;19.73;73.73
18755;BME280;35061;47.664;9.166;2023-08-01T02:33:31;100585.80;;;19.70;73.62
18755;BME280;35061;47.664;9.166;2023-08-01T02:35:59;100578.66;;;19.71;73.64
18755;BME280;35061;47.664;9.166;2023-08-01T02:38:27;100576.31;;;19.70;73.83
18755;BME280;35061;47.664;9.166;2023-08-01T02:40:55;100596.00;;;19.63;74.57
18755;BME280;35061;47.664;9.166;2023-08-01T02:43:23;100581.05;;;19.59;74.81
18755;BME280;35061;47.664;9.166;2023-08-01T02:45:51;100585.08;;;19.56;75.32
18755;BME280;35061;47.664;9.166;2023-08-01T02:48:19;100589.10;;;19.53;75.69
18755;BME280;35061;47.664;9.166;2023-08-01T02:50:47;100577.26;;;19.51;76.04
18755;BME280;35061;47.664;9.166;2023-08-01T02:53:15;100586.58;;;19.49;76.04
18755;BME280;35061;47.664;9.166;2023-08-01T02:55:44;100603.52;;;19.45;76.32
18755;BME280;35061;47.664;9.166;2023-08-01T02:58:14;100590.93;;;19.43;76.58
18755;BME280;35061;47.664;9.166;2023-08-01T03:00:42;100574.65;;;19.39;76.98
18755;BME280;35061;47.664;9.166;2023-08-01T03:03:10;100587.17;;;19.34;78.44
18755;BME280;35061;47.664;9.166;2023-08-01T03:05:38;100590.18;;;19.29;78.34
18755;BME280;35061;47.664;9.166;2023-08-01T03:08:06;100589.95;;;19.27;77.57
18755;BME280;35061;47.664;9.166;2023-08-01T03:10:34;100590.30;;;19.23;76.86
18755;BME280;35061;47.664;9.166;2023-08-01T03:13:03;100588.18;;;19.23;76.68
18755;BME280;35061;47.664;9.166;2023-08-01T03:15:31;100581.80;;;19.25;76.46
18755;BME280;35061;47.664;9.166;2023-08-01T03:17:59;100590.54;;;19.25;76.48
18755;BME280;35061;47.664;9.166;2023-08-01T03:20:27;100589.72;;;19.24;76.58
18755;BME280;35061;47.664;9.166;2023-08-01T03:22:55;100589.95;;;19.27;76.53
18755;BME280;35061;47.664;9.166;2023-08-01T03:25:23;100590.54;;;19.25;76.86
18755;BME280;35061;47.664;9.166;2023-08-01T03:27:51;100596.00;;;19.29;77.07
18755;BME280;35061;47.664;9.166;2023-08-01T03:30:19;100608.36;;;19.29;77.16
18755;BME280;35061;47.664;9.166;2023-08-01T03:32:48;100614.18;;;19.29;77.15
18755;BME280;35061;47.664;9.166;2023-08-01T03:35:16;100608.36;;;19.29;77.04
18755;BME280;35061;47.664;9.166;2023-08-01T03:37:44;100602.02;;;19.31;76.97
18755;BME280;35061;47.664;9.166;2023-08-01T03:40:12;100604.92;;;19.31;76.93
18755;BME280;35061;47.664;9.166;2023-08-01T03:42:40;100610.71;;;19.31;76.93
18755;BME280;35061;47.664;9.166;2023-08-01T03:45:09;100606.82;;;19.28;77.24
18755;BME280;35061;47.664;9.166;2023-08-01T03:47:37;100607.02;;;19.30;77.38
18755;BME280;35061;47.664;9.166;2023-08-01T03:50:06;100611.27;;;19.29;77.52
18755;BME280;35061;47.664;9.166;2023-08-01T03:52:34;100605.25;;;19.27;76.72
18755;BME280;35061;47.664;9.166;2023-08-01T03:55:02;100603.13;;;19.28;75.25
18755;BME280;35061;47.664;9.166;2023-08-01T03:57:30;100600.67;;;19.32;74.58
18755;BME280;35061;47.664;9.166;2023-08-01T03:59:58;100594.30;;;19.33;73.86
18755;BME280;35061;47.664;9.166;2023-08-01T04:02:26;100606.89;;;19.36;73.47
18755;BME280;35061;47.664;9.166;2023-08-01T04:04:55;100594.20;;;19.39;72.71
18755;BME280;35061;47.664;9.166;2023-08-01T04:07:22;100603.88;;;19.42;72.19
18755;BME280;35061;47.664;9.166;2023-08-01T04:09:50;100615.95;;;19.46;71.46
18755;BME280;35061;47.664;9.166;2023-08-01T04:12:18;100619.28;;;19.50;70.74
18755;BME280;35061;47.664;9.166;2023-08-01T04:14:46;100616.57;;;19.52;69.75
18755;BME280;35061;47.664;9.166;2023-08-01T04:17:14;100619.15;;;19.56;69.70
18755;BME280;35061;47.664;9.166;2023-08-01T04:19:42;100614.34;;;19.58;69.37
18755;BME280;35061;47.664;9.166;2023-08-01T04:22:10;100619.22;;;19.63;69.12
18755;BME280;35061;47.664;9.166;2023-08-01T04:24:38;100619.67;;;19.67;69.17
18755;BME280;35061;47.664;9.166;2023-08-01T04:27:06;100623.56;;;19.70;69.24
18755;BME280;35061;47.664;9.166;2023-08-01T04:29:34;100621.44;;;19.71;68.85
18755;BME280;35061;47.664;9.166;2023-08-01T04:32:02;100632.16;;;19.76;68.89
18755;BME280;35061;47.664;9.166;2023-08-01T04:34:30;100628.66;;;19.77;69.04
18755;BME280;35061;47.664;9.166;2023-08-01T04:36:58;100635.27;;;19.78;69.09
18755;BME280;35061;47.664;9.166;2023-08-01T04:39:26;100621.51;;;19.78;69.08
18755;BME280;35061;47.664;9.166;2023-08-01T04:41:54;100630.82;;;19.77;69.03
18755;BME280;35061;47.664;9.166;2023-08-01T04:44:22;100632.16;;;19.76;68.98
18755;BME280;35061;47.664;9.166;2023-08-01T04:46:50;100639.52;;;19.77;68.93
18755;BME280;35061;47.664;9.166;2023-08-01T04:49:18;100637.16;;;19.75;68.67
18755;BME280;35061;47.664;9.166;2023-08-01T04:51:48;100633.27;;;19.73;68.61
18755;BME280;35061;47.664;9.166;2023-08-01T04:54:16;100630.95;;;19.71;68.41
18755;BME280;35061;47.664;9.166;2023-08-01T04:56:44;100630.37;;;19.73;68.16
18755;BME280;35061;47.664;9.166;2023-08-01T04:59:12;100628.27;;;19.73;67.99
18755;BME280;35061;47.664;9.166;2023-08-01T05:01:40;100637.52;;;19.72;67.41
18755;BME280;35061;47.664;9.166;2023-08-01T05:04:08;100624.35;;;19.71;66.91
18755;BME280;35061;47.664;9.166;2023-08-01T05:06:36;100631.70;;;19.72;66.19
18755;BME280;35061;47.664;9.166;2023-08-01T05:09:04;100635.96;;;19.71;66.07
18755;BME280;35061;47.664;9.166;2023-08-01T05:11:32;100632.49;;;19.72;65.51
18755;BME280;35061;47.664;9.166;2023-08-01T05:14:00;100632.49;;;19.72;65.62
18755;BME280;35061;47.664;9.166;2023-08-01T05:16:28;100635.63;;;19.74;65.14
18755;BME280;35061;47.664;9.166;2023-08-01T05:18:56;100640.63;;;19.74;65.34
18755;BME280;35061;47.664;9.166;2023-08-01T05:21:24;100636.52;;;19.69;66.00
18755;BME280;35061;47.664;9.166;2023-08-01T05:23:53;100637.10;;;19.67;66.45
18755;BME280;35061;47.664;9.166;2023-08-01T05:26:20;100628.30;;;19.60;67.25
18755;BME280;35061;47.664;9.166;2023-08-01T05:28:49;100619.48;;;19.52;68.14
18755;BME280;35061;47.664;9.166;2023-08-01T05:31:17;100612.84;;;19.44;68.43
18755;BME280;35061;47.664;9.166;2023-08-01T05:33:45;100620.06;;;19.37;68.73
18755;BME280;35061;47.664;9.166;2023-08-01T05:36:13;100624.91;;;19.34;68.95
18755;BME280;35061;47.664;9.166;2023-08-01T05:38:41;100619.77;;;19.27;69.38
18755;BME280;35061;47.664;9.166;2023-08-01T05:41:09;100624.58;;;19.24;69.71
18755;BME280;35061;47.664;9.166;2023-08-01T05:43:37;100624.91;;;19.21;69.83
18755;BME280;35061;47.664;9.166;2023-08-01T05:46:05;100628.93;;;19.18;69.97
18755;BME280;35061;47.664;9.166;2023-08-01T05:48:33;100616.89;;;19.14;70.16
18755;BME280;35061;47.664;9.166;2023-08-01T05:51:01;100619.54;;;19.11;70.38
18755;BME280;35061;47.664;9.166;2023-08-01T05:53:29;100621.47;;;19.09;70.56
18755;BME280;35061;47.664;9.166;2023-08-01T05:55:58;100618.89;;;19.05;70.81
18755;BME280;35061;47.664;9.166;2023-08-01T05:58:26;100612.09;;;19.03;70.79
18755;BME280;35061;47.664;9.166;2023-08-01T06:00:55;100619.25;;;19.02;70.87
18755;BME280;35061;47.664;9.166;2023-08-01T06:03:23;100622.68;;;19.00;70.94
18755;BME280;35061;47.664;9.166;2023-08-01T06:05:51;100629.58;;;18.97;71.07
18755;BME280;35061;47.664;9.166;2023-08-01T06:08:19;100645.90;;;19.00;70.85
18755;BME280;35061;47.664;9.166;2023-08-01T06:10:47;100635.08;;;19.01;70.93
18755;BME280;35061;47.664;9.166;2023-08-01T06:13:15;100633.51;;;19.00;71.74
18755;BME280;35061;47.664;9.166;2023-08-01T06:15:43;100635.08;;;19.01;72.09
18755;BME280;35061;47.664;9.166;2023-08-01T06:18:11;100627.49;;;18.97;72.30
18755;BME280;35061;47.664;9.166;2023-08-01T06:20:40;100623.80;;;18.97;72.61
18755;BME280;35061;47.664;9.166;2023-08-01T06:23:08;100602.15;;;18.85;73.36
18755;BME280;35061;47.664;9.166;2023-08-01T06:25:36;100608.62;;;18.77;74.20
18755;BME280;35061;47.664;9.166;2023-08-01T06:28:04;100620.88;;;18.70;74.45
18755;BME280;35061;47.664;9.166;2023-08-01T06:30:32;100620.66;;;18.68;74.58
18755;BME280;35061;47.664;9.166;2023-08-01T06:33:00;100619.09;;;18.67;75.07
18755;BME280;35061;47.664;9.166;2023-08-01T06:35:28;100620.66;;;18.68;76.01
18755;BME280;35061;47.664;9.166;2023-08-01T06:37:56;100612.97;;;18.57;76.85
18755;BME280;35061;47.664;9.166;2023-08-01T06:40:24;100602.57;;;18.48;77.41
18755;BME280;35061;47.664;9.166;2023-08-01T06:42:53;100593.64;;;18.46;78.05
18755;BME280;35061;47.664;9.166;2023-08-01T06:45:20;100577.03;;;18.47;78.41
18755;BME280;35061;47.664;9.166;2023-08-01T06:47:48;100577.03;;;18.47;78.84
18755;BME280;35061;47.664;9.166;2023-08-01T06:50:17;100581.19;;;18.51;79.15
18755;BME280;35061;47.664;9.166;2023-08-01T06:52:44;100582.63;;;18.58;79.18
18755;BME280;35061;47.664;9.166;2023-08-01T06:55:12;100564.12;;;18.61;79.89
18755;BME280;35061;47.664;9.166;2023-08-01T06:57:41;100563.88;;;18.59;79.72
18755;BME280;35061;47.664;9.166;2023-08-01T07:00:09;100573.14;;;18.58;80.20
18755;BME280;35061;47.664;9.166;2023-08-01T07:02:37;100565.13;;;18.50;80.49
18755;BME280;35061;47.664;9.166;2023-08-01T07:05:06;100557.51;;;18.47;80.40
18755;BME280;35061;47.664;9.166;2023-08-01T07:07:34;100543.02;;;18.47;80.41
18755;BME280;35061;47.664;9.166;2023-08-01T07:10:02;100513.04;;;18.45;80.26
18755;BME280;35061;47.664;9.166;2023-08-01T07:12:30;100487.73;;;18.45;80.36
18755;BME280;35061;47.664;9.166;2023-08-01T07:14:58;100525.73;;;18.41;80.45
18755;BME280;35061;47.664;9.166;2023-08-01T07:17:28;100552.73;;;18.36;80.93
18755;BME280;35061;47.664;9.166;2023-08-01T07:19:56;100558.95;;;18.27;81.87
18755;BME280;35061;47.664;9.166;2023-08-01T07:22:24;100539.55;;;18.22;81.72
18755;BME280;35061;47.664;9.166;2023-08-01T07:24:53;100529.65;;;18.17;81.87
18755;BME280;35061;47.664;9.166;2023-08-01T07:27:21;100522.62;;;18.12;81.84
18755;BME280;35061;47.664;9.166;2023-08-01T07:29:49;100525.27;;;18.10;83.04
18755;BME280;35061;47.664;9.166;2023-08-01T07:32:17;100532.16;;;18.07;82.42
18755;BME280;35061;47.664;9.166;2023-08-01T07:34:45;100522.95;;;18.09;82.35
18755;BME280;35061;47.664;9.166;2023-08-01T07:37:13;100538.45;;;18.11;82.17
18755;BME280;35061;47.664;9.166;2023-08-01T07:39:41;100527.91;;;18.08;83.39
18755;BME280;35061;47.664;9.166;2023-08-01T07:42:09;100537.20;;;18.07;82.92
18755;BME280;35061;47.664;9.166;2023-08-01T07:44:37;100539.20;;;18.12;82.73
18755;BME280;35061;47.664;9.166;2023-08-01T07:47:05;100530.96;;;18.16;82.42
18755;BME280;35061;47.664;9.166;2023-08-01T07:49:33;100535.66;;;18.19;82.69
18755;BME280;35061;47.664;9.166;2023-08-01T07:52:01;100535.54;;;18.25;82.59
18755;BME280;35061;47.664;9.166;2023-08-01T07:54:29;100546.82;;;18.29;82.58
18755;BME280;35061;47.664;9.166;2023-08-01T07:56:57;100542.24;;;18.33;82.80
18755;BME280;35061;47.664;9.166;2023-08-01T07:59:25;100554.27;;;18.37;82.75
18755;BME280;35061;47.664;9.166;2023-08-01T08:01:53;100561.86;;;18.40;82.75
18755;BME280;35061;47.664;9.166;2023-08-01T08:04:21;100548.91;;;18.41;83.00
18755;BME280;35061;47.664;9.166;2023-08-01T08:06:49;100565.78;;;18.43;83.17
18755;BME280;35061;47.664;9.166;2023-08-01T08:09:18;100558.10;;;18.46;83.28
18755;BME280;35061;47.664;9.166;2023-08-01T08:11:46;100565.13;;;18.50;83.12
18755;BME280;35061;47.664;9.166;2023-08-01T08:14:14;100570.33;;;18.52;83.53
18755;BME280;35061;47.664;9.166;2023-08-01T08:16:43;100567.13;;;18.55;83.24
18755;BME280;35061;47.664;9.166;2023-08-01T08:19:11;100576.02;;;18.58;83.25
18755;BME280;35061;47.664;9.166;2023-08-01T08:21:39;100582.63;;;18.58;82.98
18755;BME280;35061;47.664;9.166;2023-08-01T08:24:08;100588.41;;;18.58;82.96
18755;BME280;35061;47.664;9.166;2023-08-01T08:26:36;100580.27;;;18.57;82.72
18755;BME280;35061;47.664;9.166;2023-08-01T08:29:07;100568.66;;;18.57;82.98
18755;BME280;35061;47.664;9.166;2023-08-01T08:31:35;100570.91;;;18.50;83.31
18755;BME280;35061;47.664;9.166;2023-08-01T08:34:03;100571.57;;;18.43;83.79
18755;BME280;35061;47.664;9.166;2023-08-01T08:36:31;100576.25;;;18.33;84.29
18755;BME280;35061;47.664;9.166;2023-08-01T08:38:59;100589.95;;;18.32;84.31
18755;BME280;35061;47.664;9.166;2023-08-01T08:41:30;100590.60;;;18.25;84.20
18755;BME280;35061;47.664;9.166;2023-08-01T08:44:01;100594.85;;;18.24;84.17
18755;BME280;35061;47.664;9.166;2023-08-01T08:46:34;100608.09;;;18.19;84.02
18755;BME280;35061;47.664;9.166;2023-08-01T08:49:07;100615.55;;;18.15;83.91
18755;BME280;35061;47.664;9.166;2023-08-01T08:51:36;100615.65;;;18.09;84.33
18755;BME280;35061;47.664;9.166;2023-08-01T08:54:05;100617.58;;;18.00;84.52
18755;BME280;35061;47.664;9.166;2023-08-01T08:56:34;100628.01;;;17.90;85.48
18755;BME280;35061;47.664;9.166;2023-08-01T08:59:02;100644.85;;;17.72;87.43
18755;BME280;35061;47.664;9.166;2023-08-01T09:01:31;100637.20;;;17.56;88.83
18755;BME280;35061;47.664;9.166;2023-08-01T09:04:00;100644.95;;;17.48;89.28
18755;BME280;35061;47.664;9.166;2023-08-01T09:06:30;100632.98;;;17.38;90.09
18755;BME280;35061;47.664;9.166;2023-08-01T09:09:08;100635.24;;;17.26;90.86
18755;BME280;35061;47.664;9.166;2023-08-01T09:11:46;100616.24;;;17.11;92.33
18755;BME280;35061;47.664;9.166;2023-08-01T09:14:15;100615.75;;;17.07;93.12
18755;BME280;35061;47.664;9.166;2023-08-01T09:16:44;100595.61;;;16.96;92.58
18755;BME280;35061;47.664;9.166;2023-08-01T09:19:19;100612.74;;;16.94;92.45
18755;BME280;35061;47.664;9.166;2023-08-01T09:21:47;100603.26;;;16.93;92.91
18755;BME280;35061;47.664;9.166;2023-08-01T09:24:20;100615.39;;;16.92;93.00
18755;BME280;35061;47.664;9.166;2023-08-01T09:26:49;100619.12;;;16.86;92.89
18755;BME280;35061;47.664;9.166;2023-08-01T09:29:17;100617.09;;;16.81;92.78
18755;BME280;35061;47.664;9.166;2023-08-01T09:31:45;100633.87;;;16.83;93.33
18755;BME280;35061;47.664;9.166;2023-08-01T09:34:24;100624.41;;;16.82;92.93
18755;BME280;35061;47.664;9.166;2023-08-01T09:36:59;100633.63;;;16.81;94.71
18755;BME280;35061;47.664;9.166;2023-08-01T09:39:28;100632.13;;;16.74;96.03
18755;BME280;35061;47.664;9.166;2023-08-01T09:41:57;100627.26;;;16.63;97.32
18755;BME280;35061;47.664;9.166;2023-08-01T09:44:27;100627.91;;;16.50;97.62
18755;BME280;35061;47.664;9.166;2023-08-01T09:46:59;100625.66;;;16.37;98.67
18755;BME280;35061;47.664;9.166;2023-08-01T09:49:28;100631.02;;;16.27;100.00
18755;BME280;35061;47.664;9.166;2023-08-01T09:51:57;100623.73;;;16.21;99.55
18755;BME280;35061;47.664;9.166;2023-08-01T09:54:25;100601.91;;;16.19;100.00
18755;BME280;35061;47.664;9.166;2023-08-01T09:56:54;100606.43;;;16.15;100.00
18755;BME280;35061;47.664;9.166;2023-08-01T09:59:26;100608.52;;;16.14;100.00
18755;BME280;35061;47.664;9.166;2023-08-01T10:01:55;100600.12;;;16.16;100.00
18755;BME280;35061;47.664;9.166;2023-08-01T10:04:31;100596.69;;;16.18;100.00
18755;BME280;35061;47.664;9.166;2023-08-01T10:07:08;100595.61;;;16.21;100.00
18755;BME280;35061;47.664;9.166;2023-08-01T10:09:40;100587.70;;;16.27;100.00
18755;BME280;35061;47.664;9.166;2023-08-01T10:12:09;100585.21;;;16.37;100.00
18755;BME280;35061;47.664;9.166;2023-08-01T10:14:41;100579.32;;;16.49;100.00
18755;BME280;35061;47.664;9.166;2023-08-01T10:17:10;100580.20;;;16.63;100.00
18755;BME280;35061;47.664;9.166;2023-08-01T10:19:39;100584.06;;;16.71;99.97
18755;BME280;35061;47.664;9.166;2023-08-01T10:22:09;100581.28;;;16.84;99.40
18755;BME280;35061;47.664;9.166;2023-08-01T10:24:37;100584.26;;;16.98;98.90
18755;BME280;35061;47.664;9.166;2023-08-01T10:27:14;100577.82;;;17.11;98.62
18755;BME280;35061;47.664;9.166;2023-08-01T10:29:42;100578.70;;;17.25;97.31
18755;BME280;35061;47.664;9.166;2023-08-01T10:32:11;100602.51;;;17.37;96.14
18755;BME280;35061;47.664;9.166;2023-08-01T10:34:50;100570.23;;;17.46;95.75
18755;BME280;35061;47.664;9.166;2023-08-01T10:37:18;100560.62;;;17.57;94.29
18755;BME280;35061;47.664;9.166;2023-08-01T10:39:59;100566.77;;;17.67;94.89
18755;BME280;35061;47.664;9.166;2023-08-01T10:42:38;100570.07;;;17.77;93.30
18755;BME280;35061;47.664;9.166;2023-08-01T10:45:07;100576.21;;;17.86;92.93
18755;BME280;35061;47.664;9.166;2023-08-01T10:47:35;100560.98;;;17.99;92.46
18755;BME280;35061;47.664;9.166;2023-08-01T10:50:13;100561.37;;;18.09;91.72
18755;BME280;35061;47.664;9.166;2023-08-01T10:52:42;100563.07;;;18.18;90.32
18755;BME280;35061;47.664;9.166;2023-08-01T10:55:10;100550.80;;;18.25;90.52
18755;BME280;35061;47.664;9.166;2023-08-01T10:57:47;100555.94;;;18.33;89.94
18755;BME280;35061;47.664;9.166;2023-08-01T11:00:18;100575.01;;;18.41;89.34
18755;BME280;35061;47.664;9.166;2023-08-01T11:02:50;100589.30;;;18.53;89.32
18755;BME280;35061;47.664;9.166;2023-08-01T11:05:19;100587.89;;;18.60;88.13
18755;BME280;35061;47.664;9.166;2023-08-01T11:07:58;100577.39;;;18.70;88.07
18755;BME280;35061;47.664;9.166;2023-08-01T11:10:29;100578.73;;;18.82;87.38
18755;BME280;35061;47.664;9.166;2023-08-01T11:12:58;100590.44;;;18.90;86.32
18755;BME280;35061;47.664;9.166;2023-08-01T11:15:27;100593.41;;;18.98;85.77
18755;BME280;35061;47.664;9.166;2023-08-01T11:17:55;100592.37;;;19.01;85.58
18755;BME280;35061;47.664;9.166;2023-08-01T11:20:24;100591.23;;;19.04;84.31
18755;BME280;35061;47.664;9.166;2023-08-01T11:22:56;100562.87;;;19.10;84.25
18755;BME280;35061;47.664;9.166;2023-08-01T11:28:14;100576.25;;;19.27;83.96
18755;BME280;35061;47.664;9.166;2023-08-01T11:30:43;100588.15;;;19.37;83.97
18755;BME280;35061;47.664;9.166;2023-08-01T11:35:43;100611.59;;;19.39;82.75
18755;BME280;35061;47.664;9.166;2023-08-01T11:38:11;100608.33;;;19.43;82.92
18755;BME280;35061;47.664;9.166;2023-08-01T11:40:39;100609.93;;;19.44;82.95
18755;BME280;35061;47.664;9.166;2023-08-01T11:43:08;100633.24;;;19.38;82.06
18755;BME280;35061;47.664;9.166;2023-08-01T11:45:36;100620.42;;;19.33;81.85
18755;BME280;35061;47.664;9.166;2023-08-01T11:48:04;100621.54;;;19.30;81.92
18755;BME280;35061;47.664;9.166;2023-08-01T11:50:32;100613.49;;;19.36;82.31
18755;BME280;35061;47.664;9.166;2023-08-01T11:53:00;100613.46;;;19.50;82.08
18755;BME280;35061;47.664;9.166;2023-08-01T11:55:28;100607.73;;;19.58;80.81
18755;BME280;35061;47.664;9.166;2023-08-01T11:57:57;100604.83;;;19.58;79.49
18755;BME280;35061;47.664;9.166;2023-08-01T12:00:27;100604.83;;;19.58;79.07
18755;BME280;35061;47.664;9.166;2023-08-01T12:03:09;100602.73;;;19.58;77.72
18755;BME280;35061;47.664;9.166;2023-08-01T12:05:43;100607.61;;;19.63;78.15
18755;BME280;35061;47.664;9.166;2023-08-01T12:08:15;100600.91;;;19.69;77.90
18755;BME280;35061;47.664;9.166;2023-08-01T12:10:45;100623.70;;;19.64;76.72
18755;BME280;35061;47.664;9.166;2023-08-01T12:13:24;100611.50;;;19.66;76.77
18755;BME280;35061;47.664;9.166;2023-08-01T12:15:54;100595.87;;;19.69;77.00
18755;BME280;35061;47.664;9.166;2023-08-01T12:18:25;100605.77;;;19.74;76.94
18755;BME280;35061;47.664;9.166;2023-08-01T12:21:13;100594.40;;;19.76;77.01
18755;BME280;35061;47.664;9.166;2023-08-01T12:23:42;100586.88;;;19.80;76.79
18755;BME280;35061;47.664;9.166;2023-08-01T12:26:10;100571.63;;;19.88;77.10
18755;BME280;35061;47.664;9.166;2023-08-01T12:28:38;100582.59;;;19.95;76.43
18755;BME280;35061;47.664;9.166;2023-08-01T12:31:06;100567.95;;;20.01;74.82
18755;BME280;35061;47.664;9.166;2023-08-01T12:33:34;100588.34;;;20.08;75.94
18755;BME280;35061;47.664;9.166;2023-08-01T12:36:02;100589.13;;;20.09;74.67
18755;BME280;35061;47.664;9.166;2023-08-01T12:38:31;100589.49;;;20.05;74.02
18755;BME280;35061;47.664;9.166;2023-08-01T12:41:00;100576.70;;;20.08;74.72
18755;BME280;35061;47.664;9.166;2023-08-01T12:43:29;100572.52;;;20.17;75.07
18755;BME280;35061;47.664;9.166;2023-08-01T12:45:57;100576.05;;;20.24;73.72
18755;BME280;35061;47.664;9.166;2023-08-01T12:48:26;100576.28;;;20.26;71.66
18755;BME280;35061;47.664;9.166;2023-08-01T12:50:55;100593.16;;;20.27;71.08
18755;BME280;35061;47.664;9.166;2023-08-01T12:53:23;100577.26;;;20.28;71.12
18755;BME280;35061;47.664;9.166;2023-08-01T12:55:52;100564.28;;;20.29;70.19
18755;BME280;35061;47.664;9.166;2023-08-01T12:58:20;100559.27;;;20.30;69.06
18755;BME280;35061;47.664;9.166;2023-08-01T13:00:47;100563.92;;;20.33;68.60
18755;BME280;35061;47.664;9.166;2023-08-01T13:03:16;100567.45;;;20.39;69.31
18755;BME280;35061;47.664;9.166;2023-08-01T13:05:44;100579.32;;;20.41;69.56